Minerva Sophia — SVAT8 — position and weather

sailwx.info

Track history (hours):
 
Tides and Currents Weather Stations Pressure Air Temp Water Temp Dewpoint Dewpoint Depression Visibility Wind Speed Wind Dir Waves Ship Positions

Minerva Sophia

Last reported at 2018-May-16 10:37 UTC. Time now 2018-May-28 03:21 UTC.
Position N 49°02' W 006°25'.
Warning: this ship's position is 11 days out of date.

Length 249 m; draft 11.9 m.

Type: Ship. MMSI: 240947000.

Date/timePositionNaut miles runAvg speedWind from/ knotsBaromVisibWave heightAir tempDewpointWater temp
2018-May-16 10:37N 49°02' W 006°25'413.8
2018-May-16 10:21N 49°04' W 006°19'513.9
2018-May-16 09:59N 49°06' W 006°12'713.8
2018-May-16 09:31N 49°08' W 006°03'7411.8
2018-May-16 03:15N 49°37' W 004°19'412.5
2018-May-16 02:54N 49°38' W 004°13'1413.5
2018-May-16 01:51N 49°44' W 003°52'514.2
2018-May-16 01:30N 49°46' W 003°46'714.5
2018-May-16 01:00N 49°49' W 003°36'714.7
2018-May-16 00:30N 49°52' W 003°25'814.7
2018-May-16 00:00N 49°54' W 003°14'714.3
2018-May-15 23:30N 49°57' W 003°04'713.8
2018-May-15 23:00N 49°59' W 002°54'713.4
2018-May-15 22:30N 50°01' W 002°44'612.7
2018-May-15 22:00N 50°03' W 002°34'611.7
2018-May-15 21:30N 50°04' W 002°25'610.7
2018-May-15 20:54N 50°06' W 002°16'6 9.9
2018-May-15 20:20N 50°07' W 002°07'5 9.3
2018-May-15 19:47N 50°09' W 001°59'4 9.2
2018-May-15 19:22N 50°10' W 001°54'4 9.2
2018-May-15 19:00N 50°11' W 001°48'5 9.7
2018-May-15 18:30N 50°12' W 001°41'510.5
2018-May-15 18:00N 50°13' W 001°33'611.0
2018-May-15 17:30N 50°15' W 001°25'611.8
2018-May-15 17:00N 50°17' W 001°16'612.6
2018-May-15 16:31N 50°18' W 001°07'713.7
2018-May-15 16:00N 50°20' W 000°56'714.9
2018-May-15 15:30N 50°22' W 000°45'814.8
2018-May-15 14:59N 50°24' W 000°34'714.8
2018-May-15 14:30N 50°26' W 000°23'714.2
2018-May-15 14:00N 50°28' W 000°12'713.8
2018-May-15 13:30N 50°30' W 000°02'713.6
2018-May-15 13:00N 50°31' E 000°09'713.3
2018-May-15 12:30N 50°33' E 000°19'713.2
2018-May-15 12:00N 50°35' E 000°29'612.8
2018-May-15 11:30N 50°38' E 000°38'612.4
2018-May-15 11:00N 50°41' E 000°46'612.0
2018-May-15 10:30N 50°44' E 000°54'611.1
2018-May-15 10:00N 50°47' E 001°01'1211.6
2018-May-15 08:59N 50°54' E 001°17'613.2
2018-May-15 08:31N 50°59' E 001°23'815.0
2018-May-15 08:00N 51°04' E 001°32'815.6
2018-May-15 07:31N 51°10' E 001°40'815.1
2018-May-15 07:01N 51°16' E 001°48'714.6
2018-May-15 06:31N 51°22' E 001°54'611.9
2018-May-15 06:00N 51°25' E 002°02'612.5
2018-May-15 05:30N 51°22' E 002°11'612.2
2018-May-15 05:00N 51°21' E 002°21'712.9
2018-May-15 04:26N 51°23' E 002°33'612.0
2018-May-15 03:58N 51°23' E 002°41'511.2
2018-May-15 03:30N 51°25' E 002°49'612.4
2018-May-15 03:00N 51°25' E 002°59'612.2
2018-May-15 02:30N 51°24' E 003°09'712.1
2018-May-15 01:57N 51°24' E 003°19'711.8
2018-May-15 01:22N 51°25' E 003°30'3 7.8
2018-May-15 01:00N 51°26' E 003°35'4 8.5
2018-May-15 00:30N 51°26' E 003°42'5 9.7
2018-May-15 00:00N 51°22' E 003°46'5 9.3
2018-May-14 23:31N 51°21' E 003°54'5 9.9
2018-May-14 23:00N 51°25' E 003°58'3 6.6
2018-May-14 22:30N 51°23' E 004°02'4 9.0
2018-May-14 22:00N 51°23' E 004°09'3 5.9
2018-May-14 21:31N 51°22' E 004°14'2 4.7
2018-May-14 21:00N 51°21' E 004°17'0 0.1
2018-May-14 20:30N 51°21' E 004°17'0 0.0
2018-May-14 20:00N 51°21' E 004°17'0 0.0
2018-May-14 19:30N 51°21' E 004°17'0 0.8
2018-May-14 19:00N 51°21' E 004°18'2 4.9
2018-May-14 18:30N 51°18' E 004°19'1 2.0
2018-May-14 18:00N 51°18' E 004°20'0 0.0
2018-May-14 17:29N 51°17' E 004°20'0 0.0
2018-May-14 16:59N 51°17' E 004°20'0 0.0
2018-May-14 16:29N 51°17' E 004°20'0 0.0
2018-May-14 15:59N 51°17' E 004°20'0 0.0
2018-May-14 15:26N 51°17' E 004°20'0 0.0
2018-May-14 14:59N 51°17' E 004°20'0 0.0
2018-May-14 14:29N 51°17' E 004°20'0 0.0
2018-May-14 13:59N 51°17' E 004°20'0 0.0
2018-May-14 13:29N 51°17' E 004°20'0 0.0
2018-May-14 12:59N 51°18' E 004°20'0 0.0
2018-May-14 12:29N 51°17' E 004°20'0 0.0
2018-May-14 11:53N 51°17' E 004°20'0 0.0
2018-May-14 11:29N 51°17' E 004°20'0 0.0
2018-May-14 10:59N 51°18' E 004°20'0 0.0
2018-May-14 10:29N 51°17' E 004°20'0 0.0
2018-May-14 09:59N 51°17' E 004°20'0 0.0
2018-May-14 09:30N 51°17' E 004°20'0 0.0
2018-May-14 08:59N 51°17' E 004°20'0 0.0
2018-May-14 08:29N 51°17' E 004°20'0 0.0
2018-May-14 07:56N 51°17' E 004°20'0 0.0
2018-May-14 07:29N 51°18' E 004°20'0 0.0
2018-May-14 06:59N 51°18' E 004°20'0 0.0
2018-May-14 06:29N 51°17' E 004°20'0 0.0
2018-May-14 05:59N 51°17' E 004°20'0 0.0
2018-May-14 05:30N 51°17' E 004°20'0 0.0
2018-May-14 04:59N 51°17' E 004°20'0 0.0
2018-May-14 04:23N 51°18' E 004°20'0 0.0
2018-May-14 03:59N 51°17' E 004°20'0 0.0
2018-May-14 03:29N 51°17' E 004°20'0 0.0
2018-May-14 02:59N 51°17' E 004°20'0 0.0
2018-May-14 02:29N 51°18' E 004°20'0 0.0
2018-May-14 01:56N 51°17' E 004°20'0 0.0
2018-May-14 01:26N 51°17' E 004°20'0 0.0
2018-May-14 00:59N 51°17' E 004°20'0 0.0
2018-May-14 00:29N 51°17' E 004°20'0 0.0
2018-May-13 23:53N 51°17' E 004°20'0 0.0
2018-May-13 23:29N 51°17' E 004°20'0 0.0
2018-May-13 22:53N 51°17' E 004°20'0 0.0
2018-May-13 22:26N 51°17' E 004°20'0 0.0
2018-May-13 21:59N 51°17' E 004°20'0 0.0
2018-May-13 21:17N 51°17' E 004°20'0 0.0
2018-May-13 20:56N 51°17' E 004°20'0 0.0
2018-May-13 20:29N 51°17' E 004°20'0 0.0
2018-May-13 19:59N 51°17' E 004°20'0 0.0
2018-May-13 19:29N 51°17' E 004°20'0 0.0
2018-May-13 18:59N 51°17' E 004°20'0 0.0
2018-May-13 18:26N 51°17' E 004°20'0 0.0
2018-May-13 17:53N 51°17' E 004°20'0 0.0
2018-May-13 17:26N 51°17' E 004°20'0 0.0
2018-May-13 16:59N 51°18' E 004°20'0 0.0
2018-May-13 16:29N 51°18' E 004°20'0 0.0
2018-May-13 15:59N 51°17' E 004°20'0 0.0
2018-May-13 15:29N 51°17' E 004°20'0 0.0
2018-May-13 14:59N 51°17' E 004°20'0 0.0
2018-May-13 14:23N 51°17' E 004°20'0 0.0
2018-May-13 13:59N 51°17' E 004°20'0 0.0
2018-May-13 13:26N 51°17' E 004°20'0 0.0
2018-May-13 12:59N 51°17' E 004°20'0 0.0
2018-May-13 12:29N 51°17' E 004°20'0 0.0
2018-May-13 11:59N 51°17' E 004°20'0 0.0
2018-May-13 11:26N 51°17' E 004°20'0 0.0
2018-May-13 10:59N 51°17' E 004°20'0 0.0
2018-May-13 10:29N 51°18' E 004°20'0 0.0
2018-May-13 09:59N 51°17' E 004°20'0 0.0
2018-May-13 09:26N 51°17' E 004°20'0 0.2
2018-May-13 09:00N 51°17' E 004°20'1 1.2
2018-May-13 08:30N 51°17' E 004°21'2 4.7
2018-May-13 08:00N 51°19' E 004°19'1 1.3
2018-May-13 07:30N 51°20' E 004°19'0 0.1
2018-May-13 06:11N 51°20' E 004°19'0 0.0
2018-May-13 05:23N 51°20' E 004°19'0 0.0
2018-May-13 02:38N 51°20' E 004°19'0 0.0
2018-May-13 02:11N 51°20' E 004°19'0 0.0
2018-May-13 00:59N 51°20' E 004°19'0 0.0
2018-May-13 00:17N 51°20' E 004°19'0 0.0
2018-May-12 23:53N 51°20' E 004°19'0 0.0
2018-May-12 21:44N 51°20' E 004°19'0 0.0
2018-May-12 20:29N 51°20' E 004°19'0 0.0
2018-May-12 11:56N 51°20' E 004°19'0 0.0
2018-May-12 11:08N 51°20' E 004°19'0 0.0
2018-May-12 10:56N 51°20' E 004°19'0 0.0
2018-May-12 09:17N 51°20' E 004°19'0 0.0
2018-May-12 08:53N 51°20' E 004°19'0 0.0
2018-May-12 07:23N 51°20' E 004°19'0 0.0
2018-May-12 06:59N 51°20' E 004°19'0 0.0
2018-May-12 06:23N 51°20' E 004°19'0 0.0
2018-May-12 05:59N 51°20' E 004°19'0 0.0
2018-May-12 05:26N 51°20' E 004°19'0 0.0
2018-May-12 04:59N 51°20' E 004°19'0 0.0
2018-May-12 04:29N 51°20' E 004°19'0 0.0
2018-May-12 03:59N 51°20' E 004°19'0 0.0
2018-May-12 03:29N 51°20' E 004°19'0 0.0
2018-May-12 02:59N 51°20' E 004°19'0 0.0
2018-May-12 02:23N 51°20' E 004°19'0 0.0
2018-May-12 01:41N 51°20' E 004°19'0 0.0
2018-May-12 01:23N 51°20' E 004°19'0 0.0
2018-May-12 00:56N 51°20' E 004°19'0 0.0
2018-May-12 00:29N 51°20' E 004°19'0 0.0
2018-May-11 23:56N 51°20' E 004°19'0 0.0
2018-May-11 23:26N 51°20' E 004°19'0 0.0
2018-May-11 22:59N 51°20' E 004°19'0 0.0
2018-May-11 22:17N 51°20' E 004°19'0 0.0
2018-May-11 21:59N 51°20' E 004°19'0 0.0
2018-May-11 21:29N 51°20' E 004°19'0 0.0
2018-May-11 20:56N 51°20' E 004°19'0 0.0
2018-May-11 20:29N 51°20' E 004°19'0 0.0
2018-May-11 19:59N 51°20' E 004°19'0 0.0
2018-May-11 19:29N 51°20' E 004°19'0 0.0
2018-May-11 19:00N 51°20' E 004°19'1 2.4
2018-May-11 18:30N 51°20' E 004°18'0 0.4
2018-May-11 18:00N 51°20' E 004°18'0 0.0
2018-May-11 07:04N 51°20' E 004°18'0 0.0
2018-May-11 06:46N 51°20' E 004°18'0 0.0
2018-May-11 05:01N 51°20' E 004°18'0 0.0
2018-May-11 02:07N 51°20' E 004°18'0 0.0
2018-May-11 01:55N 51°20' E 004°18'0 0.0
2018-May-11 01:31N 51°20' E 004°18'0 0.0
2018-May-10 22:13N 51°20' E 004°18'0 0.0
2018-May-10 19:04N 51°20' E 004°18'0 0.0
2018-May-10 18:55N 51°20' E 004°18'0 0.0
2018-May-10 17:37N 51°20' E 004°18'0 0.0
2018-May-10 17:24N 51°20' E 004°18'0 0.0
2018-May-10 16:49N 51°20' E 004°18'0 0.0
2018-May-10 15:00N 51°20' E 004°18'0 0.0
2018-May-10 07:48N 51°20' E 004°18'0 0.0
2018-May-10 07:31N 51°20' E 004°18'0 0.0
2018-May-10 03:12N 51°20' E 004°18'0 0.0
2018-May-10 02:54N 51°20' E 004°18'0 0.0
2018-May-10 02:18N 51°20' E 004°18'0 0.0
2018-May-09 15:00N 51°20' E 004°18'0 0.0
2018-May-09 14:30N 51°20' E 004°18'0 0.0
2018-May-09 14:00N 51°20' E 004°18'0 0.0
2018-May-09 13:30N 51°20' E 004°18'0 0.0
2018-May-09 12:51N 51°20' E 004°18'0 0.0
2018-May-09 09:18N 51°20' E 004°18'0 0.0
2018-May-09 08:30N 51°20' E 004°18'0 0.0
2018-May-09 07:57N 51°20' E 004°18'0 0.0
2018-May-09 07:24N 51°20' E 004°18'0 0.0
2018-May-09 06:57N 51°20' E 004°18'0 0.6
2018-May-09 06:30N 51°21' E 004°18'0 1.0
2018-May-09 06:00N 51°21' E 004°17'0 0.0
2018-May-09 05:30N 51°21' E 004°17'0 0.0
2018-May-09 05:00N 51°21' E 004°17'0 0.3
2018-May-09 04:31N 51°21' E 004°17'2 4.3
2018-May-09 04:00N 51°21' E 004°14'4 7.8
2018-May-09 03:30N 51°22' E 004°07'510.7
2018-May-09 03:00N 51°26' E 004°01'510.5
2018-May-09 02:30N 51°22' E 003°55'611.3
2018-May-09 02:00N 51°21' E 003°46'611.2
2018-May-09 01:30N 51°26' E 003°41'4 8.6
2018-May-09 01:00N 51°25' E 003°34'511.1
2018-May-09 00:30N 51°25' E 003°25'611.9
2018-May-09 00:00N 51°24' E 003°16'712.4
2018-May-08 23:29N 51°24' E 003°05'613.3
2018-May-08 23:00N 51°25' E 002°55'612.6
2018-May-08 22:30N 51°24' E 002°45'2 4.8
2018-May-08 22:00N 51°25' E 002°42'3 6.9
2018-May-08 21:30N 51°28' E 002°45'0 0.9
2018-May-08 21:00N 51°29' E 002°45'0 0.7
2018-May-08 20:30N 51°29' E 002°44'1 1.6
2018-May-08 20:00N 51°28' E 002°45'1 2.4
2018-May-08 19:30N 51°28' E 002°44'1 2.1
2018-May-08 19:00N 51°29' E 002°42'1 2.1
2018-May-08 18:30N 51°29' E 002°41'1 2.7
2018-May-08 18:00N 51°29' E 002°38'1 1.3
2018-May-08 17:30N 51°28' E 002°38'1 1.7
2018-May-08 17:00N 51°27' E 002°37'1 2.2
2018-May-08 16:29N 51°27' E 002°36'0 0.2
2018-May-08 15:53N 51°27' E 002°36'0 0.1
2018-May-08 15:26N 51°27' E 002°36'0 0.1
2018-May-08 14:59N 51°27' E 002°36'0 0.0
2018-May-08 14:26N 51°27' E 002°36'0 0.0
2018-May-08 13:59N 51°27' E 002°36'0 0.0
2018-May-08 13:29N 51°27' E 002°36'0 0.1
2018-May-08 12:59N 51°27' E 002°36'0 0.0
2018-May-08 12:29N 51°27' E 002°36'0 0.0
2018-May-08 11:59N 51°27' E 002°36'0 0.2
2018-May-08 11:29N 51°27' E 002°36'0 0.3
2018-May-08 10:59N 51°27' E 002°36'0 0.1
2018-May-08 10:29N 51°27' E 002°36'0 0.1
2018-May-08 09:59N 51°27' E 002°36'0 0.0
2018-May-08 09:29N 51°27' E 002°36'0 0.0
2018-May-08 08:59N 51°27' E 002°36'0 0.0
2018-May-08 08:29N 51°27' E 002°36'0 0.1
2018-May-08 07:59N 51°27' E 002°36'0 0.0
2018-May-08 07:29N 51°27' E 002°36'0 0.1
2018-May-08 06:59N 51°27' E 002°36'0 0.0
2018-May-08 06:29N 51°27' E 002°36'0 0.0
2018-May-08 05:59N 51°27' E 002°36'0 0.0
2018-May-08 05:29N 51°27' E 002°36'0 0.0
2018-May-08 04:59N 51°27' E 002°36'0 0.2
2018-May-08 04:29N 51°27' E 002°36'0 0.3
2018-May-08 03:59N 51°27' E 002°36'0 0.0
2018-May-08 03:29N 51°27' E 002°36'0 0.0
2018-May-08 02:59N 51°27' E 002°36'0 0.0
2018-May-08 02:29N 51°27' E 002°36'0 0.0
2018-May-08 01:59N 51°27' E 002°36'0 0.0
2018-May-08 01:29N 51°27' E 002°36'0 0.0
2018-May-08 00:59N 51°27' E 002°36'0 0.0
2018-May-08 00:29N 51°27' E 002°36'0 0.0
2018-May-07 23:59N 51°27' E 002°36'0 0.0
2018-May-07 23:29N 51°27' E 002°36'0 0.0
2018-May-07 22:59N 51°27' E 002°36'0 0.0
2018-May-07 22:17N 51°27' E 002°35'0 0.3
2018-May-07 21:59N 51°27' E 002°36'0 0.3
2018-May-07 21:29N 51°27' E 002°36'0 0.1
2018-May-07 20:56N 51°27' E 002°36'0 0.1
2018-May-07 20:26N 51°27' E 002°36'0 0.0
2018-May-07 19:59N 51°27' E 002°36'0 0.0
2018-May-07 19:29N 51°27' E 002°36'0 0.0
2018-May-07 18:56N 51°27' E 002°36'0 0.0
2018-May-07 18:29N 51°27' E 002°36'0 0.0
2018-May-07 18:00N 51°27' E 002°36'0 0.0
2018-May-07 17:30N 51°27' E 002°36'0 0.1
2018-May-07 17:00N 51°27' E 002°36'0 0.2
2018-May-07 16:30N 51°27' E 002°36'1 1.3
2018-May-07 16:00N 51°26' E 002°35'2 3.4
2018-May-07 15:30N 51°25' E 002°34'3 5.8
2018-May-07 15:00N 51°22' E 002°31'3 6.8
2018-May-07 14:30N 51°21' E 002°26'4 8.8
2018-May-07 14:00N 51°19' E 002°19'5 9.2
2018-May-07 13:30N 51°19' E 002°12'5 9.5
2018-May-07 13:00N 51°21' E 002°05'510.0
2018-May-07 12:30N 51°23' E 001°59'510.9
2018-May-07 12:00N 51°29' E 002°01'611.4
2018-May-07 11:30N 51°33' E 002°07'611.1
2018-May-07 11:00N 51°38' E 002°12'510.8
2018-May-07 10:30N 51°42' E 002°17'510.7
2018-May-07 10:00N 51°47' E 002°21'510.4
2018-May-07 09:30N 51°52' E 002°23'510.3
2018-May-07 09:00N 51°57' E 002°24'6 9.9
2018-May-07 08:27N 52°02' E 002°26'1 1.6
2018-May-07 07:34N 52°04' E 002°26'0 1.2
2018-May-07 07:27N 52°04' E 002°26'1 1.3
2018-May-07 06:51N 52°03' E 002°26'0 1.2
2018-May-07 06:30N 52°03' E 002°25'1 0.9
2018-May-07 05:37N 52°02' E 002°25'0 0.6
2018-May-07 05:30N 52°02' E 002°25'0 0.7
2018-May-07 04:59N 52°01' E 002°25'1 1.1
2018-May-07 04:28N 52°01' E 002°24'1 1.8
2018-May-07 04:00N 52°00' E 002°24'2 4.2
2018-May-07 03:30N 51°58' E 002°25'2 3.5
2018-May-07 03:00N 51°56' E 002°25'1 1.3
2018-May-07 02:30N 51°57' E 002°25'1 1.5
2018-May-07 02:00N 51°58' E 002°25'1 1.8
2018-May-07 01:30N 51°59' E 002°26'2 1.9
2018-May-07 00:40N 51°60' E 002°26'1 1.7
2018-May-07 00:08N 52°01' E 002°27'0 1.4
2018-May-07 00:00N 52°01' E 002°27'1 1.4
2018-May-06 23:29N 52°02' E 002°28'1 1.2
2018-May-06 23:00N 52°02' E 002°28'0 0.9
2018-May-06 22:29N 52°03' E 002°28'0 0.5
2018-May-06 21:59N 52°03' E 002°28'0 0.2
2018-May-06 21:30N 52°03' E 002°28'0 0.4
2018-May-06 21:00N 52°03' E 002°28'0 0.6
2018-May-06 20:30N 52°03' E 002°27'0 0.8
2018-May-06 20:00N 52°02' E 002°27'1 1.1
2018-May-06 19:29N 52°02' E 002°26'1 0.8
2018-May-06 18:30N 52°02' E 002°25'2 3.2
2018-May-06 18:00N 52°03' E 002°27'2 4.4
2018-May-06 17:30N 52°05' E 002°29'1 2.4
2018-May-06 17:00N 52°05' E 002°31'1 1.3
2018-May-06 16:21N 52°05' E 002°31'1 1.3
2018-May-06 15:57N 52°04' E 002°31'1 1.8
2018-May-06 15:30N 52°04' E 002°33'4 7.6
2018-May-06 15:00N 52°04' E 002°39'510.2
2018-May-06 14:30N 52°02' E 002°47'511.0
2018-May-06 14:00N 52°02' E 002°56'611.2
2018-May-06 13:30N 52°02' E 003°05'611.4
2018-May-06 12:59N 52°03' E 003°15'611.5
2018-May-06 12:30N 52°03' E 003°24'611.6
2018-May-06 12:00N 52°03' E 003°33'611.5
2018-May-06 11:30N 52°03' E 003°42'611.2
2018-May-06 11:00N 52°03' E 003°51'  
Track history (hours):
 
Tides and Currents Weather Stations Pressure Air Temp Water Temp Dewpoint Dewpoint Depression Visibility Wind Speed Wind Dir Waves Ship Positions

Minerva Sophia

Last reported at 2018-May-16 10:37 UTC. Time now 2018-May-28 03:21 UTC.
Position N 49°02' W 006°25'.
Warning: this ship's position is 11 days out of date.

Length 249 m; draft 11.9 m.

Type: Ship. MMSI: 240947000.

Date/timePositionNaut miles runAvg speedWind from/ knotsBaromVisibWave heightAir tempDewpointWater temp
2018-May-16 10:37N 49°02' W 006°25'413.8
2018-May-16 10:21N 49°04' W 006°19'513.9
2018-May-16 09:59N 49°06' W 006°12'713.8
2018-May-16 09:31N 49°08' W 006°03'7411.8
2018-May-16 03:15N 49°37' W 004°19'412.5
2018-May-16 02:54N 49°38' W 004°13'1413.5
2018-May-16 01:51N 49°44' W 003°52'514.2
2018-May-16 01:30N 49°46' W 003°46'714.5
2018-May-16 01:00N 49°49' W 003°36'714.7
2018-May-16 00:30N 49°52' W 003°25'814.7
2018-May-16 00:00N 49°54' W 003°14'714.3
2018-May-15 23:30N 49°57' W 003°04'713.8
2018-May-15 23:00N 49°59' W 002°54'713.4
2018-May-15 22:30N 50°01' W 002°44'612.7
2018-May-15 22:00N 50°03' W 002°34'611.7
2018-May-15 21:30N 50°04' W 002°25'610.7
2018-May-15 20:54N 50°06' W 002°16'6 9.9
2018-May-15 20:20N 50°07' W 002°07'5 9.3
2018-May-15 19:47N 50°09' W 001°59'4 9.2
2018-May-15 19:22N 50°10' W 001°54'4 9.2
2018-May-15 19:00N 50°11' W 001°48'5 9.7
2018-May-15 18:30N 50°12' W 001°41'510.5
2018-May-15 18:00N 50°13' W 001°33'611.0
2018-May-15 17:30N 50°15' W 001°25'611.8
2018-May-15 17:00N 50°17' W 001°16'612.6
2018-May-15 16:31N 50°18' W 001°07'713.7
2018-May-15 16:00N 50°20' W 000°56'714.9
2018-May-15 15:30N 50°22' W 000°45'814.8
2018-May-15 14:59N 50°24' W 000°34'714.8
2018-May-15 14:30N 50°26' W 000°23'714.2
2018-May-15 14:00N 50°28' W 000°12'713.8
2018-May-15 13:30N 50°30' W 000°02'713.6
2018-May-15 13:00N 50°31' E 000°09'713.3
2018-May-15 12:30N 50°33' E 000°19'713.2
2018-May-15 12:00N 50°35' E 000°29'612.8
2018-May-15 11:30N 50°38' E 000°38'612.4
2018-May-15 11:00N 50°41' E 000°46'612.0
2018-May-15 10:30N 50°44' E 000°54'611.1
2018-May-15 10:00N 50°47' E 001°01'1211.6
2018-May-15 08:59N 50°54' E 001°17'613.2
2018-May-15 08:31N 50°59' E 001°23'815.0
2018-May-15 08:00N 51°04' E 001°32'815.6
2018-May-15 07:31N 51°10' E 001°40'815.1
2018-May-15 07:01N 51°16' E 001°48'714.6
2018-May-15 06:31N 51°22' E 001°54'611.9
2018-May-15 06:00N 51°25' E 002°02'612.5
2018-May-15 05:30N 51°22' E 002°11'612.2
2018-May-15 05:00N 51°21' E 002°21'712.9
2018-May-15 04:26N 51°23' E 002°33'612.0
2018-May-15 03:58N 51°23' E 002°41'511.2
2018-May-15 03:30N 51°25' E 002°49'612.4
2018-May-15 03:00N 51°25' E 002°59'612.2
2018-May-15 02:30N 51°24' E 003°09'712.1
2018-May-15 01:57N 51°24' E 003°19'711.8
2018-May-15 01:22N 51°25' E 003°30'3 7.8
2018-May-15 01:00N 51°26' E 003°35'4 8.5
2018-May-15 00:30N 51°26' E 003°42'5 9.7
2018-May-15 00:00N 51°22' E 003°46'5 9.3
2018-May-14 23:31N 51°21' E 003°54'5 9.9
2018-May-14 23:00N 51°25' E 003°58'3 6.6
2018-May-14 22:30N 51°23' E 004°02'4 9.0
2018-May-14 22:00N 51°23' E 004°09'3 5.9
2018-May-14 21:31N 51°22' E 004°14'2 4.7
2018-May-14 21:00N 51°21' E 004°17'0 0.1
2018-May-14 20:30N 51°21' E 004°17'0 0.0
2018-May-14 20:00N 51°21' E 004°17'0 0.0
2018-May-14 19:30N 51°21' E 004°17'0 0.8
2018-May-14 19:00N 51°21' E 004°18'2 4.9
2018-May-14 18:30N 51°18' E 004°19'1 2.0
2018-May-14 18:00N 51°18' E 004°20'0 0.0
2018-May-14 17:29N 51°17' E 004°20'0 0.0
2018-May-14 16:59N 51°17' E 004°20'0 0.0
2018-May-14 16:29N 51°17' E 004°20'0 0.0
2018-May-14 15:59N 51°17' E 004°20'0 0.0
2018-May-14 15:26N 51°17' E 004°20'0 0.0
2018-May-14 14:59N 51°17' E 004°20'0 0.0
2018-May-14 14:29N 51°17' E 004°20'0 0.0
2018-May-14 13:59N 51°17' E 004°20'0 0.0
2018-May-14 13:29N 51°17' E 004°20'0 0.0
2018-May-14 12:59N 51°18' E 004°20'0 0.0
2018-May-14 12:29N 51°17' E 004°20'0 0.0
2018-May-14 11:53N 51°17' E 004°20'0 0.0
2018-May-14 11:29N 51°17' E 004°20'0 0.0
2018-May-14 10:59N 51°18' E 004°20'0 0.0
2018-May-14 10:29N 51°17' E 004°20'0 0.0
2018-May-14 09:59N 51°17' E 004°20'0 0.0
2018-May-14 09:30N 51°17' E 004°20'0 0.0
2018-May-14 08:59N 51°17' E 004°20'0 0.0
2018-May-14 08:29N 51°17' E 004°20'0 0.0
2018-May-14 07:56N 51°17' E 004°20'0 0.0
2018-May-14 07:29N 51°18' E 004°20'0 0.0
2018-May-14 06:59N 51°18' E 004°20'0 0.0
2018-May-14 06:29N 51°17' E 004°20'0 0.0
2018-May-14 05:59N 51°17' E 004°20'0 0.0
2018-May-14 05:30N 51°17' E 004°20'0 0.0
2018-May-14 04:59N 51°17' E 004°20'0 0.0
2018-May-14 04:23N 51°18' E 004°20'0 0.0
2018-May-14 03:59N 51°17' E 004°20'0 0.0
2018-May-14 03:29N 51°17' E 004°20'0 0.0
2018-May-14 02:59N 51°17' E 004°20'0 0.0
2018-May-14 02:29N 51°18' E 004°20'0 0.0
2018-May-14 01:56N 51°17' E 004°20'0 0.0
2018-May-14 01:26N 51°17' E 004°20'0 0.0
2018-May-14 00:59N 51°17' E 004°20'0 0.0
2018-May-14 00:29N 51°17' E 004°20'0 0.0
2018-May-13 23:53N 51°17' E 004°20'0 0.0
2018-May-13 23:29N 51°17' E 004°20'0 0.0
2018-May-13 22:53N 51°17' E 004°20'0 0.0
2018-May-13 22:26N 51°17' E 004°20'0 0.0
2018-May-13 21:59N 51°17' E 004°20'0 0.0
2018-May-13 21:17N 51°17' E 004°20'0 0.0
2018-May-13 20:56N 51°17' E 004°20'0 0.0
2018-May-13 20:29N 51°17' E 004°20'0 0.0
2018-May-13 19:59N 51°17' E 004°20'0 0.0
2018-May-13 19:29N 51°17' E 004°20'0 0.0
2018-May-13 18:59N 51°17' E 004°20'0 0.0
2018-May-13 18:26N 51°17' E 004°20'0 0.0
2018-May-13 17:53N 51°17' E 004°20'0 0.0
2018-May-13 17:26N 51°17' E 004°20'0 0.0
2018-May-13 16:59N 51°18' E 004°20'0 0.0
2018-May-13 16:29N 51°18' E 004°20'0 0.0
2018-May-13 15:59N 51°17' E 004°20'0 0.0
2018-May-13 15:29N 51°17' E 004°20'0 0.0
2018-May-13 14:59N 51°17' E 004°20'0 0.0
2018-May-13 14:23N 51°17' E 004°20'0 0.0
2018-May-13 13:59N 51°17' E 004°20'0 0.0
2018-May-13 13:26N 51°17' E 004°20'0 0.0
2018-May-13 12:59N 51°17' E 004°20'0 0.0
2018-May-13 12:29N 51°17' E 004°20'0 0.0
2018-May-13 11:59N 51°17' E 004°20'0 0.0
2018-May-13 11:26N 51°17' E 004°20'0 0.0
2018-May-13 10:59N 51°17' E 004°20'0 0.0
2018-May-13 10:29N 51°18' E 004°20'0 0.0
2018-May-13 09:59N 51°17' E 004°20'0 0.0
2018-May-13 09:26N 51°17' E 004°20'0 0.2
2018-May-13 09:00N 51°17' E 004°20'1 1.2
2018-May-13 08:30N 51°17' E 004°21'2 4.7
2018-May-13 08:00N 51°19' E 004°19'1 1.3
2018-May-13 07:30N 51°20' E 004°19'0 0.1
2018-May-13 06:11N 51°20' E 004°19'0 0.0
2018-May-13 05:23N 51°20' E 004°19'0 0.0
2018-May-13 02:38N 51°20' E 004°19'0 0.0
2018-May-13 02:11N 51°20' E 004°19'0 0.0
2018-May-13 00:59N 51°20' E 004°19'0 0.0
2018-May-13 00:17N 51°20' E 004°19'0 0.0
2018-May-12 23:53N 51°20' E 004°19'0 0.0
2018-May-12 21:44N 51°20' E 004°19'0 0.0
2018-May-12 20:29N 51°20' E 004°19'0 0.0
2018-May-12 11:56N 51°20' E 004°19'0 0.0
2018-May-12 11:08N 51°20' E 004°19'0 0.0
2018-May-12 10:56N 51°20' E 004°19'0 0.0
2018-May-12 09:17N 51°20' E 004°19'0 0.0
2018-May-12 08:53N 51°20' E 004°19'0 0.0
2018-May-12 07:23N 51°20' E 004°19'0 0.0
2018-May-12 06:59N 51°20' E 004°19'0 0.0
2018-May-12 06:23N 51°20' E 004°19'0 0.0
2018-May-12 05:59N 51°20' E 004°19'0 0.0
2018-May-12 05:26N 51°20' E 004°19'0 0.0
2018-May-12 04:59N 51°20' E 004°19'0 0.0
2018-May-12 04:29N 51°20' E 004°19'0 0.0
2018-May-12 03:59N 51°20' E 004°19'0 0.0
2018-May-12 03:29N 51°20' E 004°19'0 0.0
2018-May-12 02:59N 51°20' E 004°19'0 0.0
2018-May-12 02:23N 51°20' E 004°19'0 0.0
2018-May-12 01:41N 51°20' E 004°19'0 0.0
2018-May-12 01:23N 51°20' E 004°19'0 0.0
2018-May-12 00:56N 51°20' E 004°19'0 0.0
2018-May-12 00:29N 51°20' E 004°19'0 0.0
2018-May-11 23:56N 51°20' E 004°19'0 0.0
2018-May-11 23:26N 51°20' E 004°19'0 0.0
2018-May-11 22:59N 51°20' E 004°19'0 0.0
2018-May-11 22:17N 51°20' E 004°19'0 0.0
2018-May-11 21:59N 51°20' E 004°19'0 0.0
2018-May-11 21:29N 51°20' E 004°19'0 0.0
2018-May-11 20:56N 51°20' E 004°19'0 0.0
2018-May-11 20:29N 51°20' E 004°19'0 0.0
2018-May-11 19:59N 51°20' E 004°19'0 0.0
2018-May-11 19:29N 51°20' E 004°19'0 0.0
2018-May-11 19:00N 51°20' E 004°19'1 2.4
2018-May-11 18:30N 51°20' E 004°18'0 0.4
2018-May-11 18:00N 51°20' E 004°18'0 0.0
2018-May-11 07:04N 51°20' E 004°18'0 0.0
2018-May-11 06:46N 51°20' E 004°18'0 0.0
2018-May-11 05:01N 51°20' E 004°18'0 0.0
2018-May-11 02:07N 51°20' E 004°18'0 0.0
2018-May-11 01:55N 51°20' E 004°18'0 0.0
2018-May-11 01:31N 51°20' E 004°18'0 0.0
2018-May-10 22:13N 51°20' E 004°18'0 0.0
2018-May-10 19:04N 51°20' E 004°18'0 0.0
2018-May-10 18:55N 51°20' E 004°18'0 0.0
2018-May-10 17:37N 51°20' E 004°18'0 0.0
2018-May-10 17:24N 51°20' E 004°18'0 0.0
2018-May-10 16:49N 51°20' E 004°18'0 0.0
2018-May-10 15:00N 51°20' E 004°18'0 0.0
2018-May-10 07:48N 51°20' E 004°18'0 0.0
2018-May-10 07:31N 51°20' E 004°18'0 0.0
2018-May-10 03:12N 51°20' E 004°18'0 0.0
2018-May-10 02:54N 51°20' E 004°18'0 0.0
2018-May-10 02:18N 51°20' E 004°18'0 0.0
2018-May-09 15:00N 51°20' E 004°18'0 0.0
2018-May-09 14:30N 51°20' E 004°18'0 0.0
2018-May-09 14:00N 51°20' E 004°18'0 0.0
2018-May-09 13:30N 51°20' E 004°18'0 0.0
2018-May-09 12:51N 51°20' E 004°18'0 0.0
2018-May-09 09:18N 51°20' E 004°18'0 0.0
2018-May-09 08:30N 51°20' E 004°18'0 0.0
2018-May-09 07:57N 51°20' E 004°18'0 0.0
2018-May-09 07:24N 51°20' E 004°18'0 0.0
2018-May-09 06:57N 51°20' E 004°18'0 0.6
2018-May-09 06:30N 51°21' E 004°18'0 1.0
2018-May-09 06:00N 51°21' E 004°17'0 0.0
2018-May-09 05:30N 51°21' E 004°17'0 0.0
2018-May-09 05:00N 51°21' E 004°17'0 0.3
2018-May-09 04:31N 51°21' E 004°17'2 4.3
2018-May-09 04:00N 51°21' E 004°14'4 7.8
2018-May-09 03:30N 51°22' E 004°07'510.7
2018-May-09 03:00N 51°26' E 004°01'510.5
2018-May-09 02:30N 51°22' E 003°55'611.3
2018-May-09 02:00N 51°21' E 003°46'611.2
2018-May-09 01:30N 51°26' E 003°41'4 8.6
2018-May-09 01:00N 51°25' E 003°34'511.1
2018-May-09 00:30N 51°25' E 003°25'611.9
2018-May-09 00:00N 51°24' E 003°16'712.4
2018-May-08 23:29N 51°24' E 003°05'613.3
2018-May-08 23:00N 51°25' E 002°55'612.6
2018-May-08 22:30N 51°24' E 002°45'2 4.8
2018-May-08 22:00N 51°25' E 002°42'3 6.9
2018-May-08 21:30N 51°28' E 002°45'0 0.9
2018-May-08 21:00N 51°29' E 002°45'0 0.7
2018-May-08 20:30N 51°29' E 002°44'1 1.6
2018-May-08 20:00N 51°28' E 002°45'1 2.4
2018-May-08 19:30N 51°28' E 002°44'1 2.1
2018-May-08 19:00N 51°29' E 002°42'1 2.1
2018-May-08 18:30N 51°29' E 002°41'1 2.7
2018-May-08 18:00N 51°29' E 002°38'1 1.3
2018-May-08 17:30N 51°28' E 002°38'1 1.7
2018-May-08 17:00N 51°27' E 002°37'1 2.2
2018-May-08 16:29N 51°27' E 002°36'0 0.2
2018-May-08 15:53N 51°27' E 002°36'0 0.1
2018-May-08 15:26N 51°27' E 002°36'0 0.1
2018-May-08 14:59N 51°27' E 002°36'0 0.0
2018-May-08 14:26N 51°27' E 002°36'0 0.0
2018-May-08 13:59N 51°27' E 002°36'0 0.0
2018-May-08 13:29N 51°27' E 002°36'0 0.1
2018-May-08 12:59N 51°27' E 002°36'0 0.0
2018-May-08 12:29N 51°27' E 002°36'0 0.0
2018-May-08 11:59N 51°27' E 002°36'0 0.2
2018-May-08 11:29N 51°27' E 002°36'0 0.3
2018-May-08 10:59N 51°27' E 002°36'0 0.1
2018-May-08 10:29N 51°27' E 002°36'0 0.1
2018-May-08 09:59N 51°27' E 002°36'0 0.0
2018-May-08 09:29N 51°27' E 002°36'0 0.0
2018-May-08 08:59N 51°27' E 002°36'0 0.0
2018-May-08 08:29N 51°27' E 002°36'0 0.1
2018-May-08 07:59N 51°27' E 002°36'0 0.0
2018-May-08 07:29N 51°27' E 002°36'0 0.1
2018-May-08 06:59N 51°27' E 002°36'0 0.0
2018-May-08 06:29N 51°27' E 002°36'0 0.0
2018-May-08 05:59N 51°27' E 002°36'0 0.0
2018-May-08 05:29N 51°27' E 002°36'0 0.0
2018-May-08 04:59N 51°27' E 002°36'0 0.2
2018-May-08 04:29N 51°27' E 002°36'0 0.3
2018-May-08 03:59N 51°27' E 002°36'0 0.0
2018-May-08 03:29N 51°27' E 002°36'0 0.0
2018-May-08 02:59N 51°27' E 002°36'0 0.0
2018-May-08 02:29N 51°27' E 002°36'0 0.0
2018-May-08 01:59N 51°27' E 002°36'0 0.0
2018-May-08 01:29N 51°27' E 002°36'0 0.0
2018-May-08 00:59N 51°27' E 002°36'0 0.0
2018-May-08 00:29N 51°27' E 002°36'0 0.0
2018-May-07 23:59N 51°27' E 002°36'0 0.0
2018-May-07 23:29N 51°27' E 002°36'0 0.0
2018-May-07 22:59N 51°27' E 002°36'0 0.0
2018-May-07 22:17N 51°27' E 002°35'0 0.3
2018-May-07 21:59N 51°27' E 002°36'0 0.3
2018-May-07 21:29N 51°27' E 002°36'0 0.1
2018-May-07 20:56N 51°27' E 002°36'0 0.1
2018-May-07 20:26N 51°27' E 002°36'0 0.0
2018-May-07 19:59N 51°27' E 002°36'0 0.0
2018-May-07 19:29N 51°27' E 002°36'0 0.0
2018-May-07 18:56N 51°27' E 002°36'0 0.0
2018-May-07 18:29N 51°27' E 002°36'0 0.0
2018-May-07 18:00N 51°27' E 002°36'0 0.0
2018-May-07 17:30N 51°27' E 002°36'0 0.1
2018-May-07 17:00N 51°27' E 002°36'0 0.2
2018-May-07 16:30N 51°27' E 002°36'1 1.3
2018-May-07 16:00N 51°26' E 002°35'2 3.4
2018-May-07 15:30N 51°25' E 002°34'3 5.8
2018-May-07 15:00N 51°22' E 002°31'3 6.8
2018-May-07 14:30N 51°21' E 002°26'4 8.8
2018-May-07 14:00N 51°19' E 002°19'5 9.2
2018-May-07 13:30N 51°19' E 002°12'5 9.5
2018-May-07 13:00N 51°21' E 002°05'510.0
2018-May-07 12:30N 51°23' E 001°59'510.9
2018-May-07 12:00N 51°29' E 002°01'611.4
2018-May-07 11:30N 51°33' E 002°07'611.1
2018-May-07 11:00N 51°38' E 002°12'510.8
2018-May-07 10:30N 51°42' E 002°17'510.7
2018-May-07 10:00N 51°47' E 002°21'510.4
2018-May-07 09:30N 51°52' E 002°23'510.3
2018-May-07 09:00N 51°57' E 002°24'6 9.9
2018-May-07 08:27N 52°02' E 002°26'1 1.6
2018-May-07 07:34N 52°04' E 002°26'0 1.2
2018-May-07 07:27N 52°04' E 002°26'1 1.3
2018-May-07 06:51N 52°03' E 002°26'0 1.2
2018-May-07 06:30N 52°03' E 002°25'1 0.9
2018-May-07 05:37N 52°02' E 002°25'0 0.6
2018-May-07 05:30N 52°02' E 002°25'0 0.7
2018-May-07 04:59N 52°01' E 002°25'1 1.1
2018-May-07 04:28N 52°01' E 002°24'1 1.8
2018-May-07 04:00N 52°00' E 002°24'2 4.2
2018-May-07 03:30N 51°58' E 002°25'2 3.5
2018-May-07 03:00N 51°56' E 002°25'1 1.3
2018-May-07 02:30N 51°57' E 002°25'1 1.5
2018-May-07 02:00N 51°58' E 002°25'1 1.8
2018-May-07 01:30N 51°59' E 002°26'2 1.9
2018-May-07 00:40N 51°60' E 002°26'1 1.7
2018-May-07 00:08N 52°01' E 002°27'0 1.4
2018-May-07 00:00N 52°01' E 002°27'1 1.4
2018-May-06 23:29N 52°02' E 002°28'1 1.2
2018-May-06 23:00N 52°02' E 002°28'0 0.9
2018-May-06 22:29N 52°03' E 002°28'0 0.5
2018-May-06 21:59N 52°03' E 002°28'0 0.2
2018-May-06 21:30N 52°03' E 002°28'0 0.4
2018-May-06 21:00N 52°03' E 002°28'0 0.6
2018-May-06 20:30N 52°03' E 002°27'0 0.8
2018-May-06 20:00N 52°02' E 002°27'1 1.1
2018-May-06 19:29N 52°02' E 002°26'1 0.8
2018-May-06 18:30N 52°02' E 002°25'2 3.2
2018-May-06 18:00N 52°03' E 002°27'2 4.4
2018-May-06 17:30N 52°05' E 002°29'1 2.4
2018-May-06 17:00N 52°05' E 002°31'1 1.3
2018-May-06 16:21N 52°05' E 002°31'1 1.3
2018-May-06 15:57N 52°04' E 002°31'1 1.8
2018-May-06 15:30N 52°04' E 002°33'4 7.6
2018-May-06 15:00N 52°04' E 002°39'510.2
2018-May-06 14:30N 52°02' E 002°47'511.0
2018-May-06 14:00N 52°02' E 002°56'611.2
2018-May-06 13:30N 52°02' E 003°05'611.4
2018-May-06 12:59N 52°03' E 003°15'611.5
2018-May-06 12:30N 52°03' E 003°24'611.6
2018-May-06 12:00N 52°03' E 003°33'611.5
2018-May-06 11:30N 52°03' E 003°42'611.2
2018-May-06 11:00N 52°03' E 003°51'  

Dump ship's entire track history